createdAt,value
2017-09-14T00:01:25.580Z,17.60
2017-09-14T00:03:53.162Z,17.50
2017-09-14T00:06:20.749Z,17.50
2017-09-14T00:08:48.323Z,17.40
2017-09-14T00:11:15.893Z,17.30
2017-09-14T00:13:44.234Z,17.20
2017-09-14T00:16:11.802Z,17.20
2017-09-14T00:18:39.377Z,17.40
2017-09-14T00:21:06.937Z,17.40
2017-09-14T00:23:34.518Z,17.50
2017-09-14T00:26:03.787Z,17.70
2017-09-14T00:28:31.628Z,17.60
2017-09-14T00:30:59.193Z,17.70
2017-09-14T00:33:26.868Z,17.80
2017-09-14T00:35:54.459Z,17.80
2017-09-14T00:38:22.857Z,17.90
2017-09-14T00:40:50.434Z,17.90
2017-09-14T00:43:18.006Z,17.90
2017-09-14T00:45:45.571Z,17.80
2017-09-14T00:48:13.897Z,17.60
2017-09-14T00:50:42.254Z,17.50
2017-09-14T00:53:09.820Z,17.50
2017-09-14T00:55:37.696Z,17.40
2017-09-14T00:58:06.102Z,17.20
2017-09-14T01:00:33.688Z,17.20
2017-09-14T01:03:01.257Z,17.10
2017-09-14T01:05:29.578Z,16.80
2017-09-14T01:07:57.151Z,16.80
2017-09-14T01:10:24.702Z,16.60
2017-09-14T01:12:52.261Z,16.60
2017-09-14T01:15:19.816Z,16.40
2017-09-14T01:17:47.657Z,16.30
2017-09-14T01:20:15.989Z,16.10
2017-09-14T01:22:43.545Z,16.10
2017-09-14T01:25:11.115Z,16.00
2017-09-14T01:27:38.682Z,15.90
2017-09-14T01:30:06.248Z,15.80
2017-09-14T01:32:33.821Z,15.80
2017-09-14T01:35:01.391Z,15.70
2017-09-14T01:37:29.770Z,15.50
2017-09-14T01:39:58.503Z,15.50
2017-09-14T01:42:26.058Z,15.50
2017-09-14T01:44:53.614Z,15.40
2017-09-14T01:47:21.184Z,15.30
2017-09-14T01:49:48.734Z,15.30
2017-09-14T01:52:16.307Z,15.20
2017-09-14T01:54:43.861Z,15.10
2017-09-14T01:57:11.734Z,15.10
2017-09-14T01:59:39.285Z,15.00
2017-09-14T02:02:06.845Z,15.00
2017-09-14T02:04:34.424Z,14.90
2017-09-14T02:07:01.985Z,14.90
2017-09-14T02:09:29.558Z,15.10
2017-09-14T02:11:57.119Z,15.20
2017-09-14T02:14:25.041Z,15.20
2017-09-14T02:16:52.600Z,15.30
2017-09-14T02:19:20.161Z,15.30
2017-09-14T02:21:47.731Z,15.40
2017-09-14T02:24:15.288Z,15.50
2017-09-14T02:26:42.842Z,15.60
2017-09-14T02:29:10.405Z,15.50
2017-09-14T02:31:38.274Z,15.50
2017-09-14T02:34:06.236Z,15.50
2017-09-14T02:36:33.802Z,15.40
2017-09-14T02:39:01.397Z,15.20
2017-09-14T02:41:29.721Z,15.00
2017-09-14T02:43:57.289Z,15.00
2017-09-14T02:46:24.875Z,14.90
2017-09-14T02:48:52.717Z,14.90
2017-09-14T02:51:20.279Z,14.70
2017-09-14T02:53:47.844Z,14.70
2017-09-14T02:56:15.419Z,14.60
2017-09-14T02:58:43.007Z,14.60
2017-09-14T03:01:11.343Z,14.50
2017-09-14T03:03:39.681Z,14.50
2017-09-14T03:06:07.353Z,14.40
2017-09-14T03:08:34.911Z,14.50
2017-09-14T03:11:02.505Z,14.40
2017-09-14T03:13:30.071Z,14.40
2017-09-14T03:15:58.004Z,14.30
2017-09-14T03:18:25.570Z,14.30
2017-09-14T03:20:53.124Z,14.30
2017-09-14T03:23:20.711Z,14.20
2017-09-14T03:25:48.282Z,14.20
2017-09-14T03:28:15.852Z,14.20
2017-09-14T03:30:44.171Z,14.10
2017-09-14T03:33:12.134Z,14.10
2017-09-14T03:35:39.690Z,14.10
2017-09-14T03:38:07.560Z,14.10
2017-09-14T03:40:35.135Z,14.10
2017-09-14T03:43:02.707Z,14.10
2017-09-14T03:45:30.271Z,14.10
2017-09-14T03:47:57.834Z,14.00
2017-09-14T03:50:25.404Z,14.10
2017-09-14T03:52:52.964Z,14.00
2017-09-14T03:55:20.902Z,14.00
2017-09-14T03:57:48.464Z,14.00
2017-09-14T04:00:16.022Z,14.00
2017-09-14T04:02:43.600Z,14.10
2017-09-14T04:05:11.164Z,14.10
2017-09-14T04:07:38.740Z,14.10
2017-09-14T04:10:07.106Z,14.10
2017-09-14T04:12:35.765Z,14.10
2017-09-14T04:15:03.330Z,14.00
2017-09-14T04:17:30.890Z,14.10
2017-09-14T04:19:58.460Z,14.00
2017-09-14T04:22:26.020Z,14.00
2017-09-14T04:24:53.599Z,14.00
2017-09-14T04:27:21.934Z,13.90
2017-09-14T04:29:49.516Z,13.90
2017-09-14T04:32:17.089Z,13.90
2017-09-14T04:34:45.448Z,14.00
2017-09-14T04:37:13.014Z,13.90
2017-09-14T04:39:41.395Z,14.00
2017-09-14T04:42:09.953Z,14.00
2017-09-14T04:44:37.510Z,14.00
2017-09-14T04:47:05.106Z,14.00
2017-09-14T04:49:33.477Z,14.00
2017-09-14T04:52:02.091Z,14.00
2017-09-14T04:54:29.656Z,14.00
2017-09-14T04:56:57.208Z,14.10
2017-09-14T04:59:24.786Z,14.10
2017-09-14T05:01:52.336Z,14.10
2017-09-14T05:04:19.923Z,14.10
2017-09-14T05:06:47.482Z,14.10
2017-09-14T05:09:15.437Z,14.10
2017-09-14T05:11:43.016Z,14.10
2017-09-14T05:14:10.584Z,14.10
2017-09-14T05:16:38.177Z,14.10
2017-09-14T05:19:05.858Z,14.20
2017-09-14T05:21:33.422Z,14.10
2017-09-14T05:24:00.984Z,14.10
2017-09-14T05:26:28.858Z,14.10
2017-09-14T05:28:57.194Z,14.10
2017-09-14T05:31:24.754Z,14.10
2017-09-14T05:33:52.330Z,14.20
2017-09-14T05:36:19.881Z,14.20
2017-09-14T05:38:47.459Z,14.40
2017-09-14T05:41:15.027Z,14.40
2017-09-14T05:43:43.364Z,14.60
2017-09-14T05:46:10.949Z,14.50
2017-09-14T05:48:38.820Z,14.70
2017-09-14T05:51:06.387Z,14.80
2017-09-14T05:53:33.951Z,14.80
2017-09-14T05:56:01.542Z,14.90
2017-09-14T05:58:29.116Z,14.90
2017-09-14T06:00:57.493Z,15.10
2017-09-14T06:03:25.841Z,15.10
2017-09-14T06:05:53.421Z,15.10
2017-09-14T06:08:21.772Z,15.40
2017-09-14T06:10:49.633Z,15.30
2017-09-14T06:13:17.201Z,15.40
2017-09-14T06:15:44.777Z,15.60
2017-09-14T06:18:12.354Z,15.60
2017-09-14T06:20:39.973Z,15.70
2017-09-14T06:23:07.560Z,15.70
2017-09-14T06:25:35.887Z,15.90
2017-09-14T06:28:03.468Z,15.90
2017-09-14T06:30:31.043Z,16.00
2017-09-14T06:32:58.636Z,16.10
2017-09-14T06:35:26.249Z,16.20
2017-09-14T06:37:54.198Z,16.20
2017-09-14T06:40:21.775Z,16.40
2017-09-14T06:42:49.345Z,16.50
2017-09-14T06:45:16.932Z,16.60
2017-09-14T06:47:44.498Z,16.80
2017-09-14T06:50:12.071Z,16.90
2017-09-14T06:52:39.631Z,17.10
2017-09-14T06:55:07.204Z,17.20
2017-09-14T06:57:34.776Z,17.40
2017-09-14T07:00:02.620Z,17.50
2017-09-14T07:02:30.177Z,17.60
2017-09-14T07:04:57.726Z,17.80
2017-09-14T07:07:25.301Z,17.90
2017-09-14T07:09:52.853Z,18.10
2017-09-14T07:12:20.459Z,18.20
2017-09-14T07:14:48.027Z,18.30
2017-09-14T07:17:15.968Z,18.50
2017-09-14T07:19:43.551Z,18.50
2017-09-14T07:22:12.065Z,18.60
2017-09-14T07:24:39.634Z,18.70
2017-09-14T07:27:07.198Z,18.80
2017-09-14T07:29:34.799Z,18.80
2017-09-14T07:32:02.550Z,18.90
2017-09-14T07:34:30.536Z,19.00
2017-09-14T07:36:58.113Z,19.10
2017-09-14T07:39:26.465Z,19.30
2017-09-14T07:41:54.043Z,19.30
2017-09-14T07:44:22.425Z,19.50
2017-09-14T07:46:50.785Z,19.60
2017-09-14T07:49:18.343Z,19.60
2017-09-14T07:51:45.926Z,19.60
2017-09-14T07:54:13.501Z,19.70
2017-09-14T07:56:41.403Z,19.70
2017-09-14T07:59:08.970Z,19.60
2017-09-14T08:01:36.544Z,19.40
2017-09-14T08:04:04.128Z,18.90
2017-09-14T08:06:32.460Z,18.40
2017-09-14T08:09:00.040Z,18.40
2017-09-14T08:11:27.602Z,18.30
2017-09-14T08:13:55.185Z,18.10
2017-09-14T08:16:23.518Z,17.70
2017-09-14T08:18:51.376Z,17.80
2017-09-14T08:21:18.930Z,17.50
2017-09-14T08:23:46.493Z,17.20
2017-09-14T08:26:14.072Z,17.10
2017-09-14T08:28:41.638Z,17.00
2017-09-14T08:31:09.215Z,16.90
2017-09-14T08:33:37.546Z,16.70
2017-09-14T08:36:05.132Z,16.70
2017-09-14T08:38:32.711Z,16.60
2017-09-14T08:41:01.396Z,16.40
2017-09-14T08:43:29.718Z,16.30
2017-09-14T08:45:57.339Z,16.30
2017-09-14T08:48:25.697Z,16.30
2017-09-14T08:50:53.259Z,16.30
2017-09-14T08:53:21.618Z,16.20
2017-09-14T08:55:49.203Z,16.10
2017-09-14T08:58:17.549Z,15.90
2017-09-14T09:00:45.125Z,15.90
2017-09-14T09:03:12.976Z,15.60
2017-09-14T09:05:40.539Z,15.40
2017-09-14T09:08:08.115Z,15.10
2017-09-14T09:10:35.721Z,15.00
2017-09-14T09:13:03.281Z,14.70
2017-09-14T09:15:30.892Z,14.60
2017-09-14T09:17:59.256Z,14.20
2017-09-14T09:20:26.880Z,14.20
2017-09-14T09:22:54.456Z,13.80
2017-09-14T09:25:22.305Z,13.60
2017-09-14T09:27:49.900Z,13.50
2017-09-14T09:30:17.466Z,13.40
2017-09-14T09:32:45.039Z,13.50
2017-09-14T09:35:13.399Z,13.60
2017-09-14T09:37:40.983Z,13.60
2017-09-14T09:40:08.557Z,13.50
2017-09-14T09:42:36.897Z,13.10
2017-09-14T09:45:04.454Z,13.00
2017-09-14T09:47:32.412Z,12.90
2017-09-14T09:49:59.992Z,12.90
2017-09-14T09:52:27.559Z,12.80
2017-09-14T09:54:55.985Z,12.60
2017-09-14T09:57:23.577Z,12.60
2017-09-14T09:59:51.213Z,12.60
2017-09-14T10:02:18.805Z,12.50
2017-09-14T10:04:46.663Z,12.50
2017-09-14T10:07:15.151Z,12.50
2017-09-14T10:09:42.741Z,12.50
2017-09-14T10:12:10.338Z,12.40
2017-09-14T10:14:38.681Z,12.10
2017-09-14T10:17:06.255Z,12.10
2017-09-14T10:19:33.840Z,12.10
2017-09-14T10:22:01.454Z,12.00
2017-09-14T10:24:29.066Z,12.00
2017-09-14T10:26:56.664Z,11.90
2017-09-14T10:29:25.034Z,11.80
2017-09-14T10:31:53.674Z,11.70
2017-09-14T10:34:21.270Z,11.70
2017-09-14T10:36:48.890Z,11.70
2017-09-14T10:39:16.742Z,11.70
2017-09-14T10:41:44.318Z,11.70
2017-09-14T10:44:11.898Z,11.60
2017-09-14T10:46:39.498Z,11.50
2017-09-14T10:49:07.866Z,11.40
2017-09-14T10:51:36.208Z,11.40
2017-09-14T10:54:03.771Z,11.30
2017-09-14T10:56:31.346Z,11.30
2017-09-14T10:58:58.908Z,11.20
2017-09-14T11:01:26.849Z,11.10
2017-09-14T11:03:54.415Z,11.00
2017-09-14T11:06:21.993Z,10.90
2017-09-14T11:08:49.570Z,11.00
2017-09-14T11:11:17.908Z,10.90
2017-09-14T11:13:45.491Z,10.80
2017-09-14T11:16:13.910Z,10.80
2017-09-14T11:18:41.494Z,10.80
2017-09-14T11:21:09.086Z,10.80
2017-09-14T11:23:37.056Z,10.80
2017-09-14T11:26:04.634Z,10.80
2017-09-14T11:28:32.966Z,10.90
2017-09-14T11:31:00.568Z,10.90
2017-09-14T11:33:28.911Z,10.90
2017-09-14T11:35:56.473Z,10.90
2017-09-14T11:38:24.044Z,10.90
2017-09-14T11:40:52.085Z,11.00
2017-09-14T11:43:19.689Z,11.10
2017-09-14T11:45:47.259Z,11.10
2017-09-14T11:48:14.870Z,11.10
2017-09-14T11:50:42.918Z,11.10
2017-09-14T11:53:10.558Z,11.10
2017-09-14T11:55:38.275Z,11.10
2017-09-14T11:58:06.245Z,11.00
2017-09-14T12:00:33.840Z,11.00
2017-09-14T12:03:01.416Z,10.90
2017-09-14T12:05:29.001Z,10.90
2017-09-14T12:07:56.587Z,10.80
2017-09-14T12:10:24.208Z,10.80
2017-09-14T12:12:51.784Z,10.90
2017-09-14T12:15:19.654Z,10.90
2017-09-14T12:17:47.218Z,10.80
2017-09-14T12:20:14.787Z,10.80
2017-09-14T12:22:42.399Z,10.70
2017-09-14T12:25:09.962Z,10.80
2017-09-14T12:27:37.568Z,10.70
2017-09-14T12:30:05.115Z,10.70
2017-09-14T12:32:32.962Z,10.60
2017-09-14T12:35:00.521Z,10.50
2017-09-14T12:37:28.069Z,10.50
2017-09-14T12:39:55.638Z,10.40
2017-09-14T12:42:23.520Z,10.40
2017-09-14T12:44:51.109Z,10.40
2017-09-14T12:47:19.518Z,10.40
2017-09-14T12:49:47.575Z,10.40
2017-09-14T12:52:15.176Z,10.50
2017-09-14T12:54:47.916Z,10.50
2017-09-14T12:57:15.565Z,10.40
2017-09-14T12:59:44.035Z,10.30
2017-09-14T13:02:12.403Z,10.30
2017-09-14T13:04:41.047Z,10.30
2017-09-14T13:07:08.662Z,10.30
2017-09-14T13:09:37.016Z,10.40
2017-09-14T13:12:04.625Z,10.40
2017-09-14T13:14:32.225Z,10.50
2017-09-14T13:16:59.822Z,10.60
2017-09-14T13:19:28.146Z,10.60
2017-09-14T13:21:56.014Z,10.60
2017-09-14T13:24:23.584Z,10.70
2017-09-14T13:26:51.144Z,10.70
2017-09-14T13:29:20.025Z,10.70
2017-09-14T13:31:48.365Z,10.60
2017-09-14T13:34:15.958Z,10.60
2017-09-14T13:36:43.543Z,10.60
2017-09-14T13:39:11.507Z,10.40
2017-09-14T13:41:39.084Z,10.40
2017-09-14T13:44:07.419Z,10.30
2017-09-14T13:46:35.029Z,10.30
2017-09-14T13:49:03.371Z,10.20
2017-09-14T13:51:30.974Z,10.20
2017-09-14T13:53:58.568Z,10.20
2017-09-14T13:56:26.404Z,10.20
2017-09-14T13:58:54.016Z,10.20
2017-09-14T14:01:21.583Z,10.10
2017-09-14T14:03:49.538Z,10.10
2017-09-14T14:06:17.093Z,10.10
2017-09-14T14:08:44.682Z,10.10
2017-09-14T14:11:13.035Z,10.10
2017-09-14T14:13:40.591Z,10.10
2017-09-14T14:16:08.204Z,10.10
2017-09-14T14:18:35.784Z,10.00
2017-09-14T14:21:03.410Z,10.00
2017-09-14T14:23:31.735Z,10.00
2017-09-14T14:25:59.706Z,9.90
2017-09-14T14:28:27.292Z,9.90
2017-09-14T14:30:54.865Z,9.90
2017-09-14T14:33:22.473Z,9.80
2017-09-14T14:35:50.042Z,9.80
2017-09-14T14:38:17.630Z,9.80
2017-09-14T14:40:45.211Z,9.80
2017-09-14T14:43:12.805Z,9.80
2017-09-14T14:45:40.365Z,9.90
2017-09-14T14:48:08.204Z,9.90
2017-09-14T14:50:35.803Z,9.90
2017-09-14T14:53:03.372Z,9.90
2017-09-14T14:55:30.957Z,10.00
2017-09-14T14:57:59.713Z,10.00
2017-09-14T15:00:27.578Z,10.00
2017-09-14T15:02:55.175Z,10.00
2017-09-14T15:05:23.525Z,10.20
2017-09-14T15:07:51.135Z,10.10
2017-09-14T15:10:18.717Z,10.20
2017-09-14T15:12:46.316Z,10.20
2017-09-14T15:15:13.927Z,10.20
2017-09-14T15:17:41.525Z,10.30
2017-09-14T15:20:09.117Z,10.30
2017-09-14T15:22:37.474Z,10.40
2017-09-14T15:25:05.168Z,10.40
2017-09-14T15:27:32.758Z,10.40
2017-09-14T15:30:00.337Z,10.40
2017-09-14T15:32:27.922Z,10.40
2017-09-14T15:34:55.849Z,10.50
2017-09-14T15:37:23.431Z,10.50
2017-09-14T15:39:56.826Z,10.50
2017-09-14T15:42:30.091Z,10.60
2017-09-14T15:45:03.356Z,10.60
2017-09-14T15:47:30.945Z,10.70
2017-09-14T15:52:56.802Z,10.80
2017-09-14T15:55:24.888Z,10.80
2017-09-14T15:57:53.245Z,10.90
2017-09-14T16:00:20.831Z,10.90
2017-09-14T16:02:49.188Z,10.90
2017-09-14T16:05:16.925Z,10.90
2017-09-14T16:07:44.527Z,10.90
2017-09-14T16:10:12.892Z,10.90
2017-09-14T16:12:40.465Z,10.90
2017-09-14T16:15:08.034Z,10.90
2017-09-14T16:17:37.004Z,11.00
2017-09-14T16:20:05.490Z,11.00
2017-09-14T16:22:33.059Z,11.00
2017-09-14T16:25:00.656Z,11.00
2017-09-14T16:27:28.265Z,11.00
2017-09-14T16:29:55.961Z,11.10
2017-09-14T16:32:23.546Z,11.10
2017-09-14T16:34:51.155Z,11.10
2017-09-14T16:37:18.743Z,11.20
2017-09-14T16:39:46.662Z,11.20
2017-09-14T16:42:14.223Z,11.20
2017-09-14T16:44:41.807Z,11.30
2017-09-14T16:47:10.148Z,11.40
2017-09-14T16:49:37.741Z,11.40
2017-09-14T16:52:06.069Z,11.40
2017-09-14T16:54:33.671Z,11.40
2017-09-14T16:57:02.174Z,11.30
2017-09-14T16:59:29.748Z,11.30
2017-09-14T17:01:57.455Z,11.30
2017-09-14T17:04:25.901Z,11.30
2017-09-14T17:06:53.513Z,11.30
2017-09-14T17:09:21.852Z,11.30
2017-09-14T17:11:50.213Z,11.40
2017-09-14T17:14:17.878Z,11.40
2017-09-14T17:16:45.491Z,11.40
2017-09-14T17:19:13.440Z,11.40
2017-09-14T17:21:41.026Z,11.40
2017-09-14T17:24:09.439Z,11.40
2017-09-14T17:26:37.103Z,11.40
2017-09-14T17:29:04.808Z,11.40
2017-09-14T17:31:32.415Z,11.40
2017-09-14T17:34:00.082Z,11.30
2017-09-14T17:36:28.343Z,11.30
2017-09-14T17:38:55.920Z,11.30
2017-09-14T17:41:24.236Z,11.30
2017-09-14T17:43:51.808Z,11.20
2017-09-14T17:46:19.432Z,11.20
2017-09-14T17:48:47.066Z,11.20
2017-09-14T17:51:14.648Z,11.20
2017-09-14T17:53:42.261Z,11.20
2017-09-14T17:56:10.620Z,11.10
2017-09-14T17:58:38.311Z,11.10
2017-09-14T18:01:05.911Z,11.10
2017-09-14T18:03:33.788Z,11.10
2017-09-14T18:06:02.136Z,11.00
2017-09-14T18:08:29.735Z,11.00
2017-09-14T18:10:57.494Z,10.90
2017-09-14T18:13:25.097Z,10.90
2017-09-14T18:15:52.684Z,10.90
2017-09-14T18:18:21.051Z,10.80
2017-09-14T18:20:48.803Z,10.80
2017-09-14T18:23:16.398Z,10.80
2017-09-14T18:25:44.376Z,10.90
2017-09-14T18:28:11.955Z,10.90
2017-09-14T18:30:39.699Z,10.90
2017-09-14T18:33:08.871Z,10.90
2017-09-14T18:35:36.549Z,10.90
2017-09-14T18:38:04.161Z,10.90
2017-09-14T18:40:31.733Z,10.90
2017-09-14T18:42:59.339Z,10.90
2017-09-14T18:45:26.992Z,10.90
2017-09-14T18:47:54.597Z,10.90
2017-09-14T18:50:22.963Z,10.90
2017-09-14T18:52:51.593Z,10.80
2017-09-14T18:55:19.197Z,10.80
2017-09-14T18:57:46.796Z,10.80
2017-09-14T19:00:14.526Z,10.80
2017-09-14T19:02:42.108Z,10.80
2017-09-14T19:05:09.701Z,10.80
2017-09-14T19:07:37.296Z,10.80
2017-09-14T19:10:04.966Z,10.80
2017-09-14T19:12:33.333Z,10.80
2017-09-14T19:15:01.308Z,10.70
2017-09-14T19:17:28.911Z,10.70
2017-09-14T19:19:56.518Z,10.70
2017-09-14T19:22:24.185Z,10.70
2017-09-14T19:24:51.757Z,10.70
2017-09-14T19:27:19.365Z,10.70
2017-09-14T19:29:47.252Z,10.70
2017-09-14T19:32:15.047Z,10.70
2017-09-14T19:34:43.577Z,10.70
2017-09-14T19:37:11.583Z,10.70
2017-09-14T19:39:39.204Z,10.70
2017-09-14T19:42:06.811Z,10.70
2017-09-14T19:44:34.477Z,10.70
2017-09-14T19:47:02.831Z,10.70
2017-09-14T19:49:30.446Z,10.70
2017-09-14T19:51:58.022Z,10.70
2017-09-14T19:54:25.662Z,10.70
2017-09-14T19:56:53.489Z,10.70
2017-09-14T19:59:21.180Z,10.70
2017-09-14T20:01:48.772Z,10.70
2017-09-14T20:04:16.363Z,10.70
2017-09-14T20:06:44.148Z,10.70
2017-09-14T20:09:12.482Z,10.80
2017-09-14T20:11:40.338Z,10.80
2017-09-14T20:14:07.925Z,10.80
2017-09-14T20:16:35.528Z,10.70
2017-09-14T20:19:03.896Z,10.80
2017-09-14T20:21:32.356Z,10.70
2017-09-14T20:24:00.009Z,10.70
2017-09-14T20:26:27.577Z,10.60
2017-09-14T20:28:55.513Z,10.70
2017-09-14T20:31:23.865Z,10.60
2017-09-14T20:33:51.566Z,10.60
2017-09-14T20:36:19.949Z,10.60
2017-09-14T20:38:48.326Z,10.60
2017-09-14T20:41:15.913Z,10.60
2017-09-14T20:43:44.282Z,10.60
2017-09-14T20:46:13.190Z,10.60
2017-09-14T20:48:40.767Z,10.60
2017-09-14T20:51:08.349Z,10.70
2017-09-14T20:53:35.946Z,10.70
2017-09-14T20:56:03.584Z,10.70
2017-09-14T20:58:31.204Z,10.60
2017-09-14T21:00:58.803Z,10.70
2017-09-14T21:03:26.473Z,10.60
2017-09-14T21:05:54.115Z,10.70
2017-09-14T21:08:22.089Z,10.60
2017-09-14T21:10:49.682Z,10.70
2017-09-14T21:13:18.030Z,10.60
2017-09-14T21:15:45.885Z,10.60
2017-09-14T21:18:13.463Z,10.70
2017-09-14T21:20:41.037Z,10.70
2017-09-14T21:23:09.382Z,10.60
2017-09-14T21:25:38.009Z,10.60
2017-09-14T21:28:05.672Z,10.60
2017-09-14T21:30:33.999Z,10.60
2017-09-14T21:33:01.595Z,10.60
2017-09-14T21:35:30.194Z,10.50
2017-09-14T21:37:58.536Z,10.50
2017-09-14T21:40:26.129Z,10.50
2017-09-14T21:42:53.716Z,10.50
2017-09-14T21:45:21.328Z,10.40
2017-09-14T21:47:49.974Z,10.40
2017-09-14T21:50:17.551Z,10.40
2017-09-14T21:52:45.132Z,10.40
2017-09-14T21:55:13.481Z,10.30
2017-09-14T21:57:41.047Z,10.30
2017-09-14T22:00:08.627Z,10.30
2017-09-14T22:02:36.967Z,10.30
2017-09-14T22:05:04.803Z,10.30
2017-09-14T22:07:32.371Z,10.30
2017-09-14T22:09:59.917Z,10.30
2017-09-14T22:12:28.416Z,10.30
2017-09-14T22:14:55.969Z,10.30
2017-09-14T22:17:23.548Z,10.20
2017-09-14T22:19:51.112Z,10.20
2017-09-14T22:22:18.980Z,10.20
2017-09-14T22:24:46.533Z,10.20
2017-09-14T22:27:14.099Z,10.20
2017-09-14T22:29:41.682Z,10.20
2017-09-14T22:32:10.032Z,10.20
2017-09-14T22:34:37.599Z,10.10
2017-09-14T22:37:05.184Z,10.10
2017-09-14T22:39:33.747Z,10.10
2017-09-14T22:42:01.309Z,10.10
2017-09-14T22:44:29.803Z,10.00
2017-09-14T22:46:57.380Z,10.10
2017-09-14T22:49:25.730Z,10.00
2017-09-14T22:51:54.077Z,10.00
2017-09-14T22:54:21.642Z,10.00
2017-09-14T22:56:49.245Z,10.00
2017-09-14T22:59:16.816Z,10.00
2017-09-14T23:01:44.388Z,10.00
2017-09-14T23:04:11.971Z,10.00
2017-09-14T23:06:40.321Z,10.00
2017-09-14T23:09:07.880Z,10.00
2017-09-14T23:11:35.459Z,10.00
2017-09-14T23:14:03.020Z,10.00
2017-09-14T23:16:31.499Z,10.00
2017-09-14T23:18:59.087Z,10.00
2017-09-14T23:21:26.657Z,9.90
2017-09-14T23:23:54.252Z,10.00
2017-09-14T23:26:21.818Z,9.90
2017-09-14T23:28:49.393Z,9.90
2017-09-14T23:31:16.954Z,9.90
2017-09-14T23:33:44.525Z,9.90
2017-09-14T23:36:12.098Z,10.00
2017-09-14T23:38:39.684Z,9.90
2017-09-14T23:41:08.033Z,9.90
2017-09-14T23:43:35.591Z,9.90
2017-09-14T23:46:03.550Z,9.90
2017-09-14T23:48:31.354Z,9.90
2017-09-14T23:50:59.690Z,9.90
2017-09-14T23:53:30.236Z,9.90
2017-09-14T23:55:57.799Z,9.90
2017-09-14T23:58:25.391Z,9.90
